sensor_id;sensor_type;location;lat;lon;timestamp;P1;durP1;ratioP1;P2;durP2;ratioP2
25531;SDS011;13429;48.816;9.118;2023-05-10T00:01:07;3.13;;;1.02;;
25531;SDS011;13429;48.816;9.118;2023-05-10T00:03:33;1.23;;;0.70;;
25531;SDS011;13429;48.816;9.118;2023-05-10T00:05:59;0.57;;;0.50;;
25531;SDS011;13429;48.816;9.118;2023-05-10T00:08:25;0.40;;;0.40;;
25531;SDS011;13429;48.816;9.118;2023-05-10T00:10:51;0.45;;;0.32;;
25531;SDS011;13429;48.816;9.118;2023-05-10T00:13:17;0.43;;;0.30;;
25531;SDS011;13429;48.816;9.118;2023-05-10T00:15:43;0.20;;;0.20;;
25531;SDS011;13429;48.816;9.118;2023-05-10T00:18:09;1.75;;;0.28;;
25531;SDS011;13429;48.816;9.118;2023-05-10T00:20:36;0.57;;;0.17;;
25531;SDS011;13429;48.816;9.118;2023-05-10T00:23:02;0.20;;;0.20;;
25531;SDS011;13429;48.816;9.118;2023-05-10T00:25:28;1.65;;;0.10;;
25531;SDS011;13429;48.816;9.118;2023-05-10T00:27:54;1.08;;;0.20;;
25531;SDS011;13429;48.816;9.118;2023-05-10T00:30:22;2.08;;;0.20;;
25531;SDS011;13429;48.816;9.118;2023-05-10T00:32:48;0.85;;;0.10;;
25531;SDS011;13429;48.816;9.118;2023-05-10T00:35:15;0.40;;;0.30;;
25531;SDS011;13429;48.816;9.118;2023-05-10T00:37:41;0.13;;;0.10;;
25531;SDS011;13429;48.816;9.118;2023-05-10T00:40:07;0.75;;;0.20;;
25531;SDS011;13429;48.816;9.118;2023-05-10T00:42:33;0.10;;;0.00;;
25531;SDS011;13429;48.816;9.118;2023-05-10T00:44:59;0.52;;;0.20;;
25531;SDS011;13429;48.816;9.118;2023-05-10T00:47:25;0.10;;;0.10;;
25531;SDS011;13429;48.816;9.118;2023-05-10T00:49:51;0.20;;;0.10;;
25531;SDS011;13429;48.816;9.118;2023-05-10T00:52:17;1.27;;;0.20;;
25531;SDS011;13429;48.816;9.118;2023-05-10T00:54:43;0.43;;;0.30;;
25531;SDS011;13429;48.816;9.118;2023-05-10T00:57:10;0.80;;;0.43;;
25531;SDS011;13429;48.816;9.118;2023-05-10T00:59:36;0.17;;;0.17;;
25531;SDS011;13429;48.816;9.118;2023-05-10T01:02:02;0.15;;;0.15;;
25531;SDS011;13429;48.816;9.118;2023-05-10T01:04:28;0.20;;;0.20;;
25531;SDS011;13429;48.816;9.118;2023-05-10T01:06:55;0.70;;;0.32;;
25531;SDS011;13429;48.816;9.118;2023-05-10T01:09:21;1.00;;;0.35;;
25531;SDS011;13429;48.816;9.118;2023-05-10T01:11:51;0.15;;;0.15;;
25531;SDS011;13429;48.816;9.118;2023-05-10T01:14:18;0.88;;;0.32;;
25531;SDS011;13429;48.816;9.118;2023-05-10T01:16:44;0.43;;;0.30;;
25531;SDS011;13429;48.816;9.118;2023-05-10T01:19:30;0.68;;;0.32;;
25531;SDS011;13429;48.816;9.118;2023-05-10T01:22:02;0.30;;;0.30;;
25531;SDS011;13429;48.816;9.118;2023-05-10T01:34:36;3.17;;;0.50;;
25531;SDS011;13429;48.816;9.118;2023-05-10T01:37:06;0.47;;;0.40;;
25531;SDS011;13429;48.816;9.118;2023-05-10T01:39:46;1.25;;;0.57;;
25531;SDS011;13429;48.816;9.118;2023-05-10T01:48:10;0.50;;;0.40;;
25531;SDS011;13429;48.816;9.118;2023-05-10T01:50:37;2.22;;;0.65;;
25531;SDS011;13429;48.816;9.118;2023-05-10T01:53:05;0.75;;;0.57;;
25531;SDS011;13429;48.816;9.118;2023-05-10T01:55:33;1.00;;;0.70;;
25531;SDS011;13429;48.816;9.118;2023-05-10T01:58:05;0.60;;;0.50;;
25531;SDS011;13429;48.816;9.118;2023-05-10T02:00:33;3.10;;;0.50;;
25531;SDS011;13429;48.816;9.118;2023-05-10T02:03:00;1.65;;;0.60;;
25531;SDS011;13429;48.816;9.118;2023-05-10T02:05:27;1.00;;;0.63;;
25531;SDS011;13429;48.816;9.118;2023-05-10T02:07:54;0.80;;;0.80;;
25531;SDS011;13429;48.816;9.118;2023-05-10T02:10:21;2.30;;;0.70;;
25531;SDS011;13429;48.816;9.118;2023-05-10T02:12:47;1.00;;;0.63;;
25531;SDS011;13429;48.816;9.118;2023-05-10T02:15:15;3.17;;;0.73;;
25531;SDS011;13429;48.816;9.118;2023-05-10T02:17:43;1.30;;;0.70;;
25531;SDS011;13429;48.816;9.118;2023-05-10T02:20:11;1.42;;;0.77;;
25531;SDS011;13429;48.816;9.118;2023-05-10T02:22:37;0.80;;;0.60;;
25531;SDS011;13429;48.816;9.118;2023-05-10T02:25:04;0.70;;;0.57;;
25531;SDS011;13429;48.816;9.118;2023-05-10T02:27:32;0.55;;;0.47;;
25531;SDS011;13429;48.816;9.118;2023-05-10T02:29:59;2.25;;;1.40;;
25531;SDS011;13429;48.816;9.118;2023-05-10T02:32:26;4.22;;;3.67;;
25531;SDS011;13429;48.816;9.118;2023-05-10T02:34:53;6.38;;;4.80;;
25531;SDS011;13429;48.816;9.118;2023-05-10T02:37:20;6.85;;;4.93;;
25531;SDS011;13429;48.816;9.118;2023-05-10T02:39:47;4.85;;;3.35;;
25531;SDS011;13429;48.816;9.118;2023-05-10T02:42:18;3.33;;;2.08;;
25531;SDS011;13429;48.816;9.118;2023-05-10T02:44:45;4.22;;;1.80;;
25531;SDS011;13429;48.816;9.118;2023-05-10T02:47:12;2.20;;;1.63;;
25531;SDS011;13429;48.816;9.118;2023-05-10T02:49:38;2.55;;;1.55;;
25531;SDS011;13429;48.816;9.118;2023-05-10T02:52:05;1.83;;;1.42;;
25531;SDS011;13429;48.816;9.118;2023-05-10T02:54:34;1.13;;;0.80;;
25531;SDS011;13429;48.816;9.118;2023-05-10T02:57:04;2.20;;;0.93;;
25531;SDS011;13429;48.816;9.118;2023-05-10T02:59:30;3.30;;;1.08;;
25531;SDS011;13429;48.816;9.118;2023-05-10T03:05:01;0.80;;;0.70;;
25531;SDS011;13429;48.816;9.118;2023-05-10T03:07:32;1.95;;;1.10;;
25531;SDS011;13429;48.816;9.118;2023-05-10T03:09:58;2.22;;;0.80;;
25531;SDS011;13429;48.816;9.118;2023-05-10T03:17:59;2.40;;;0.70;;
25531;SDS011;13429;48.816;9.118;2023-05-10T03:20:37;1.15;;;0.47;;
25531;SDS011;13429;48.816;9.118;2023-05-10T03:23:10;1.85;;;0.60;;
25531;SDS011;13429;48.816;9.118;2023-05-10T03:25:37;8.23;;;0.88;;
25531;SDS011;13429;48.816;9.118;2023-05-10T03:28:05;2.28;;;0.57;;
25531;SDS011;13429;48.816;9.118;2023-05-10T03:30:31;0.77;;;0.57;;
25531;SDS011;13429;48.816;9.118;2023-05-10T03:32:58;1.90;;;0.70;;
25531;SDS011;13429;48.816;9.118;2023-05-10T03:35:29;2.95;;;0.77;;
25531;SDS011;13429;48.816;9.118;2023-05-10T03:37:55;1.65;;;0.88;;
25531;SDS011;13429;48.816;9.118;2023-05-10T03:40:21;1.88;;;0.80;;
25531;SDS011;13429;48.816;9.118;2023-05-10T03:42:48;1.15;;;0.90;;
25531;SDS011;13429;48.816;9.118;2023-05-10T03:45:14;2.95;;;1.40;;
25531;SDS011;13429;48.816;9.118;2023-05-10T03:47:40;4.68;;;0.82;;
25531;SDS011;13429;48.816;9.118;2023-05-10T03:50:06;1.70;;;0.82;;
25531;SDS011;13429;48.816;9.118;2023-05-10T03:52:32;1.73;;;0.93;;
25531;SDS011;13429;48.816;9.118;2023-05-10T03:54:58;2.72;;;1.10;;
25531;SDS011;13429;48.816;9.118;2023-05-10T03:57:24;1.35;;;0.73;;
25531;SDS011;13429;48.816;9.118;2023-05-10T03:59:50;0.70;;;0.70;;
25531;SDS011;13429;48.816;9.118;2023-05-10T04:02:16;0.95;;;0.80;;
25531;SDS011;13429;48.816;9.118;2023-05-10T04:04:42;0.93;;;0.82;;
25531;SDS011;13429;48.816;9.118;2023-05-10T04:07:08;1.20;;;1.00;;
25531;SDS011;13429;48.816;9.118;2023-05-10T04:09:35;1.10;;;0.73;;
25531;SDS011;13429;48.816;9.118;2023-05-10T04:12:01;3.50;;;0.80;;
25531;SDS011;13429;48.816;9.118;2023-05-10T04:14:27;2.97;;;1.70;;
25531;SDS011;13429;48.816;9.118;2023-05-10T04:16:53;3.55;;;1.85;;
25531;SDS011;13429;48.816;9.118;2023-05-10T04:19:20;3.28;;;1.35;;
25531;SDS011;13429;48.816;9.118;2023-05-10T04:21:46;1.65;;;0.95;;
25531;SDS011;13429;48.816;9.118;2023-05-10T04:24:12;1.33;;;0.88;;
25531;SDS011;13429;48.816;9.118;2023-05-10T04:26:38;1.40;;;0.90;;
25531;SDS011;13429;48.816;9.118;2023-05-10T04:29:04;1.15;;;0.85;;
25531;SDS011;13429;48.816;9.118;2023-05-10T04:31:30;3.15;;;1.00;;
25531;SDS011;13429;48.816;9.118;2023-05-10T04:33:56;1.67;;;0.90;;
25531;SDS011;13429;48.816;9.118;2023-05-10T04:36:22;4.63;;;0.80;;
25531;SDS011;13429;48.816;9.118;2023-05-10T04:38:48;1.23;;;0.52;;
25531;SDS011;13429;48.816;9.118;2023-05-10T04:41:14;2.17;;;0.50;;
25531;SDS011;13429;48.816;9.118;2023-05-10T04:43:40;1.52;;;0.68;;
25531;SDS011;13429;48.816;9.118;2023-05-10T04:46:06;2.97;;;1.02;;
25531;SDS011;13429;48.816;9.118;2023-05-10T04:48:32;2.50;;;0.68;;
25531;SDS011;13429;48.816;9.118;2023-05-10T04:50:58;2.85;;;0.90;;
25531;SDS011;13429;48.816;9.118;2023-05-10T04:53:24;3.45;;;0.80;;
25531;SDS011;13429;48.816;9.118;2023-05-10T04:55:51;5.60;;;0.98;;
25531;SDS011;13429;48.816;9.118;2023-05-10T04:58:17;0.95;;;0.80;;
25531;SDS011;13429;48.816;9.118;2023-05-10T05:00:43;0.65;;;0.50;;
25531;SDS011;13429;48.816;9.118;2023-05-10T05:03:09;1.73;;;0.77;;
25531;SDS011;13429;48.816;9.118;2023-05-10T05:05:35;2.17;;;1.17;;
25531;SDS011;13429;48.816;9.118;2023-05-10T05:08:01;2.63;;;1.30;;
25531;SDS011;13429;48.816;9.118;2023-05-10T05:10:27;2.33;;;0.80;;
25531;SDS011;13429;48.816;9.118;2023-05-10T05:12:53;2.17;;;0.90;;
25531;SDS011;13429;48.816;9.118;2023-05-10T05:15:19;2.00;;;1.00;;
25531;SDS011;13429;48.816;9.118;2023-05-10T05:17:45;2.60;;;0.80;;
25531;SDS011;13429;48.816;9.118;2023-05-10T05:20:11;1.33;;;0.80;;
25531;SDS011;13429;48.816;9.118;2023-05-10T05:22:38;1.63;;;1.05;;
25531;SDS011;13429;48.816;9.118;2023-05-10T05:25:04;2.63;;;0.90;;
25531;SDS011;13429;48.816;9.118;2023-05-10T05:27:31;1.55;;;0.82;;
25531;SDS011;13429;48.816;9.118;2023-05-10T05:29:57;1.08;;;0.70;;
25531;SDS011;13429;48.816;9.118;2023-05-10T05:32:24;1.35;;;0.93;;
25531;SDS011;13429;48.816;9.118;2023-05-10T05:34:50;2.75;;;1.02;;
25531;SDS011;13429;48.816;9.118;2023-05-10T05:37:17;3.00;;;0.98;;
25531;SDS011;13429;48.816;9.118;2023-05-10T05:39:44;1.30;;;0.90;;
25531;SDS011;13429;48.816;9.118;2023-05-10T05:42:10;3.72;;;1.50;;
25531;SDS011;13429;48.816;9.118;2023-05-10T05:44:37;3.47;;;0.82;;
25531;SDS011;13429;48.816;9.118;2023-05-10T05:47:03;1.92;;;1.30;;
25531;SDS011;13429;48.816;9.118;2023-05-10T05:49:29;4.15;;;1.25;;
25531;SDS011;13429;48.816;9.118;2023-05-10T05:52:02;1.30;;;0.70;;
25531;SDS011;13429;48.816;9.118;2023-05-10T05:54:28;10.10;;;1.10;;
25531;SDS011;13429;48.816;9.118;2023-05-10T05:56:55;8.80;;;1.13;;
25531;SDS011;13429;48.816;9.118;2023-05-10T05:59:21;2.47;;;0.80;;
25531;SDS011;13429;48.816;9.118;2023-05-10T06:01:48;7.20;;;1.02;;
25531;SDS011;13429;48.816;9.118;2023-05-10T06:04:14;2.05;;;1.23;;
25531;SDS011;13429;48.816;9.118;2023-05-10T06:06:40;1.65;;;0.88;;
25531;SDS011;13429;48.816;9.118;2023-05-10T06:09:07;1.67;;;0.88;;
25531;SDS011;13429;48.816;9.118;2023-05-10T06:11:33;1.92;;;1.10;;
25531;SDS011;13429;48.816;9.118;2023-05-10T06:13:59;1.50;;;0.95;;
25531;SDS011;13429;48.816;9.118;2023-05-10T06:16:26;1.40;;;1.10;;
25531;SDS011;13429;48.816;9.118;2023-05-10T06:18:52;2.25;;;1.00;;
25531;SDS011;13429;48.816;9.118;2023-05-10T06:21:18;2.90;;;1.40;;
25531;SDS011;13429;48.816;9.118;2023-05-10T06:23:45;2.78;;;1.50;;
25531;SDS011;13429;48.816;9.118;2023-05-10T06:26:11;1.17;;;1.05;;
25531;SDS011;13429;48.816;9.118;2023-05-10T06:28:37;1.58;;;0.95;;
25531;SDS011;13429;48.816;9.118;2023-05-10T06:31:04;9.73;;;1.63;;
25531;SDS011;13429;48.816;9.118;2023-05-10T06:33:30;1.98;;;1.40;;
25531;SDS011;13429;48.816;9.118;2023-05-10T06:35:56;3.00;;;1.30;;
25531;SDS011;13429;48.816;9.118;2023-05-10T06:38:22;1.90;;;1.00;;
25531;SDS011;13429;48.816;9.118;2023-05-10T06:40:48;2.53;;;1.52;;
25531;SDS011;13429;48.816;9.118;2023-05-10T06:43:15;2.35;;;1.00;;
25531;SDS011;13429;48.816;9.118;2023-05-10T06:45:41;4.25;;;1.55;;
25531;SDS011;13429;48.816;9.118;2023-05-10T06:48:07;2.72;;;1.02;;
25531;SDS011;13429;48.816;9.118;2023-05-10T06:50:33;1.27;;;0.82;;
25531;SDS011;13429;48.816;9.118;2023-05-10T06:52:59;2.00;;;0.93;;
25531;SDS011;13429;48.816;9.118;2023-05-10T06:55:26;1.52;;;1.10;;
25531;SDS011;13429;48.816;9.118;2023-05-10T06:57:52;1.15;;;0.80;;
25531;SDS011;13429;48.816;9.118;2023-05-10T07:00:19;1.70;;;1.17;;
25531;SDS011;13429;48.816;9.118;2023-05-10T07:02:45;1.95;;;1.05;;
25531;SDS011;13429;48.816;9.118;2023-05-10T07:05:11;1.90;;;1.10;;
25531;SDS011;13429;48.816;9.118;2023-05-10T07:07:38;2.97;;;1.23;;
25531;SDS011;13429;48.816;9.118;2023-05-10T07:10:04;2.80;;;0.80;;
25531;SDS011;13429;48.816;9.118;2023-05-10T07:12:30;1.40;;;1.10;;
25531;SDS011;13429;48.816;9.118;2023-05-10T07:14:57;1.23;;;0.90;;
25531;SDS011;13429;48.816;9.118;2023-05-10T07:17:23;5.63;;;1.38;;
25531;SDS011;13429;48.816;9.118;2023-05-10T07:19:49;2.50;;;0.90;;
25531;SDS011;13429;48.816;9.118;2023-05-10T07:22:15;4.18;;;1.13;;
25531;SDS011;13429;48.816;9.118;2023-05-10T07:24:41;5.10;;;1.00;;
25531;SDS011;13429;48.816;9.118;2023-05-10T07:27:08;2.72;;;0.85;;
25531;SDS011;13429;48.816;9.118;2023-05-10T07:29:34;2.95;;;1.20;;
25531;SDS011;13429;48.816;9.118;2023-05-10T07:32:00;2.25;;;0.82;;
25531;SDS011;13429;48.816;9.118;2023-05-10T07:34:26;2.30;;;0.68;;
25531;SDS011;13429;48.816;9.118;2023-05-10T07:36:53;1.30;;;0.82;;
25531;SDS011;13429;48.816;9.118;2023-05-10T07:39:19;1.45;;;1.00;;
25531;SDS011;13429;48.816;9.118;2023-05-10T07:41:45;2.50;;;0.63;;
25531;SDS011;13429;48.816;9.118;2023-05-10T07:44:11;2.17;;;0.70;;
25531;SDS011;13429;48.816;9.118;2023-05-10T07:46:38;4.60;;;0.80;;
25531;SDS011;13429;48.816;9.118;2023-05-10T07:49:04;4.53;;;0.90;;
25531;SDS011;13429;48.816;9.118;2023-05-10T07:51:30;0.98;;;0.60;;
25531;SDS011;13429;48.816;9.118;2023-05-10T07:53:56;0.65;;;0.65;;
25531;SDS011;13429;48.816;9.118;2023-05-10T07:56:26;1.13;;;0.70;;
25531;SDS011;13429;48.816;9.118;2023-05-10T07:58:54;1.30;;;0.88;;
25531;SDS011;13429;48.816;9.118;2023-05-10T08:01:21;1.02;;;0.73;;
25531;SDS011;13429;48.816;9.118;2023-05-10T08:03:47;4.50;;;1.05;;
25531;SDS011;13429;48.816;9.118;2023-05-10T08:06:14;2.63;;;0.93;;
25531;SDS011;13429;48.816;9.118;2023-05-10T08:08:40;0.85;;;0.50;;
25531;SDS011;13429;48.816;9.118;2023-05-10T08:11:07;0.90;;;0.50;;
25531;SDS011;13429;48.816;9.118;2023-05-10T08:13:33;1.13;;;0.52;;
25531;SDS011;13429;48.816;9.118;2023-05-10T08:15:59;4.45;;;0.73;;
25531;SDS011;13429;48.816;9.118;2023-05-10T08:18:25;4.63;;;0.63;;
25531;SDS011;13429;48.816;9.118;2023-05-10T08:20:51;1.23;;;0.50;;
25531;SDS011;13429;48.816;9.118;2023-05-10T08:23:17;0.35;;;0.32;;
25531;SDS011;13429;48.816;9.118;2023-05-10T08:25:43;2.80;;;0.73;;
25531;SDS011;13429;48.816;9.118;2023-05-10T08:28:09;1.35;;;0.60;;
25531;SDS011;13429;48.816;9.118;2023-05-10T08:30:35;1.75;;;1.05;;
25531;SDS011;13429;48.816;9.118;2023-05-10T08:33:01;4.18;;;0.70;;
25531;SDS011;13429;48.816;9.118;2023-05-10T08:35:27;2.20;;;0.40;;
25531;SDS011;13429;48.816;9.118;2023-05-10T08:37:53;1.75;;;0.30;;
25531;SDS011;13429;48.816;9.118;2023-05-10T08:40:19;0.52;;;0.35;;
25531;SDS011;13429;48.816;9.118;2023-05-10T08:42:51;2.65;;;0.50;;
25531;SDS011;13429;48.816;9.118;2023-05-10T08:45:19;0.30;;;0.22;;
25531;SDS011;13429;48.816;9.118;2023-05-10T08:47:45;0.98;;;0.82;;
25531;SDS011;13429;48.816;9.118;2023-05-10T08:50:11;0.30;;;0.20;;
25531;SDS011;13429;48.816;9.118;2023-05-10T08:52:38;1.65;;;0.40;;
25531;SDS011;13429;48.816;9.118;2023-05-10T08:55:06;1.20;;;0.30;;
25531;SDS011;13429;48.816;9.118;2023-05-10T08:57:32;1.15;;;0.40;;
25531;SDS011;13429;48.816;9.118;2023-05-10T08:59:59;0.85;;;0.20;;
25531;SDS011;13429;48.816;9.118;2023-05-10T09:02:26;0.30;;;0.20;;
25531;SDS011;13429;48.816;9.118;2023-05-10T09:04:52;5.28;;;0.55;;
25531;SDS011;13429;48.816;9.118;2023-05-10T09:07:18;0.38;;;0.30;;
25531;SDS011;13429;48.816;9.118;2023-05-10T09:09:45;1.58;;;0.30;;
25531;SDS011;13429;48.816;9.118;2023-05-10T09:12:12;3.25;;;0.20;;
25531;SDS011;13429;48.816;9.118;2023-05-10T09:14:40;0.40;;;0.20;;
25531;SDS011;13429;48.816;9.118;2023-05-10T09:17:06;0.32;;;0.30;;
25531;SDS011;13429;48.816;9.118;2023-05-10T09:19:32;1.27;;;0.50;;
25531;SDS011;13429;48.816;9.118;2023-05-10T09:21:59;0.95;;;0.30;;
25531;SDS011;13429;48.816;9.118;2023-05-10T09:24:26;0.68;;;0.28;;
25531;SDS011;13429;48.816;9.118;2023-05-10T09:26:52;0.40;;;0.20;;
25531;SDS011;13429;48.816;9.118;2023-05-10T09:29:18;1.95;;;0.68;;
25531;SDS011;13429;48.816;9.118;2023-05-10T09:31:46;0.38;;;0.30;;
25531;SDS011;13429;48.816;9.118;2023-05-10T09:34:15;1.88;;;0.32;;
25531;SDS011;13429;48.816;9.118;2023-05-10T09:36:55;1.08;;;0.35;;
25531;SDS011;13429;48.816;9.118;2023-05-10T09:39:34;2.03;;;0.35;;
25531;SDS011;13429;48.816;9.118;2023-05-10T09:42:01;0.22;;;0.20;;
25531;SDS011;13429;48.816;9.118;2023-05-10T09:44:28;0.50;;;0.32;;
25531;SDS011;13429;48.816;9.118;2023-05-10T09:46:54;0.93;;;0.22;;
25531;SDS011;13429;48.816;9.118;2023-05-10T09:49:21;4.38;;;0.57;;
25531;SDS011;13429;48.816;9.118;2023-05-10T09:51:47;1.83;;;0.30;;
25531;SDS011;13429;48.816;9.118;2023-05-10T09:54:14;0.88;;;0.50;;
25531;SDS011;13429;48.816;9.118;2023-05-10T09:56:40;2.15;;;0.50;;
25531;SDS011;13429;48.816;9.118;2023-05-10T09:59:07;0.50;;;0.32;;
25531;SDS011;13429;48.816;9.118;2023-05-10T10:01:34;2.50;;;0.40;;
25531;SDS011;13429;48.816;9.118;2023-05-10T10:04:07;1.83;;;0.47;;
25531;SDS011;13429;48.816;9.118;2023-05-10T10:06:39;3.05;;;0.63;;
25531;SDS011;13429;48.816;9.118;2023-05-10T10:09:05;0.52;;;0.30;;
25531;SDS011;13429;48.816;9.118;2023-05-10T10:11:33;0.95;;;0.30;;
25531;SDS011;13429;48.816;9.118;2023-05-10T10:14:00;3.42;;;0.90;;
25531;SDS011;13429;48.816;9.118;2023-05-10T10:16:29;8.18;;;0.98;;
25531;SDS011;13429;48.816;9.118;2023-05-10T10:18:56;0.40;;;0.20;;
25531;SDS011;13429;48.816;9.118;2023-05-10T10:21:22;2.15;;;0.40;;
25531;SDS011;13429;48.816;9.118;2023-05-10T10:23:48;3.67;;;0.63;;
25531;SDS011;13429;48.816;9.118;2023-05-10T10:26:15;2.47;;;0.40;;
25531;SDS011;13429;48.816;9.118;2023-05-10T10:28:48;3.05;;;0.50;;
25531;SDS011;13429;48.816;9.118;2023-05-10T10:36:55;1.05;;;0.40;;
25531;SDS011;13429;48.816;9.118;2023-05-10T10:39:19;3.85;;;0.50;;
25531;SDS011;13429;48.816;9.118;2023-05-10T10:41:50;1.85;;;0.45;;
25531;SDS011;13429;48.816;9.118;2023-05-10T10:52:20;0.52;;;0.32;;
25531;SDS011;13429;48.816;9.118;2023-05-10T10:54:51;3.83;;;0.73;;
25531;SDS011;13429;48.816;9.118;2023-05-10T10:57:17;0.23;;;0.17;;
25531;SDS011;13429;48.816;9.118;2023-05-10T10:59:44;0.68;;;0.30;;
25531;SDS011;13429;48.816;9.118;2023-05-10T11:04:56;1.55;;;0.20;;
25531;SDS011;13429;48.816;9.118;2023-05-10T11:07:22;0.57;;;0.28;;
25531;SDS011;13429;48.816;9.118;2023-05-10T11:09:48;0.98;;;0.40;;
25531;SDS011;13429;48.816;9.118;2023-05-10T11:12:14;1.52;;;0.13;;
25531;SDS011;13429;48.816;9.118;2023-05-10T11:14:40;1.48;;;0.35;;
25531;SDS011;13429;48.816;9.118;2023-05-10T11:17:22;1.08;;;0.40;;
25531;SDS011;13429;48.816;9.118;2023-05-10T11:20:07;2.28;;;0.40;;
25531;SDS011;13429;48.816;9.118;2023-05-10T11:25:29;0.95;;;0.32;;
25531;SDS011;13429;48.816;9.118;2023-05-10T11:27:55;2.80;;;0.50;;
25531;SDS011;13429;48.816;9.118;2023-05-10T11:30:22;1.33;;;0.50;;
25531;SDS011;13429;48.816;9.118;2023-05-10T11:32:48;1.02;;;0.40;;
25531;SDS011;13429;48.816;9.118;2023-05-10T11:35:14;2.35;;;0.30;;
25531;SDS011;13429;48.816;9.118;2023-05-10T11:37:40;1.10;;;0.50;;
25531;SDS011;13429;48.816;9.118;2023-05-10T11:40:08;2.00;;;0.68;;
25531;SDS011;13429;48.816;9.118;2023-05-10T11:42:38;1.85;;;0.52;;
25531;SDS011;13429;48.816;9.118;2023-05-10T11:45:04;2.63;;;0.55;;
25531;SDS011;13429;48.816;9.118;2023-05-10T11:47:30;1.38;;;0.57;;
25531;SDS011;13429;48.816;9.118;2023-05-10T11:49:57;2.25;;;0.50;;
25531;SDS011;13429;48.816;9.118;2023-05-10T11:52:23;2.60;;;0.45;;
25531;SDS011;13429;48.816;9.118;2023-05-10T11:54:55;6.65;;;0.70;;
25531;SDS011;13429;48.816;9.118;2023-05-10T11:57:26;0.70;;;0.38;;
25531;SDS011;13429;48.816;9.118;2023-05-10T11:59:56;2.10;;;0.57;;
25531;SDS011;13429;48.816;9.118;2023-05-10T12:02:23;1.80;;;0.80;;
25531;SDS011;13429;48.816;9.118;2023-05-10T12:04:49;5.50;;;4.00;;
25531;SDS011;13429;48.816;9.118;2023-05-10T12:07:16;6.78;;;4.70;;
25531;SDS011;13429;48.816;9.118;2023-05-10T12:10:17;8.50;;;6.30;;
25531;SDS011;13429;48.816;9.118;2023-05-10T12:12:38;5.75;;;3.15;;
25531;SDS011;13429;48.816;9.118;2023-05-10T12:15:06;3.08;;;1.50;;
25531;SDS011;13429;48.816;9.118;2023-05-10T12:17:37;6.07;;;2.15;;
25531;SDS011;13429;48.816;9.118;2023-05-10T12:22:59;5.55;;;3.42;;
25531;SDS011;13429;48.816;9.118;2023-05-10T12:25:34;5.40;;;2.88;;
25531;SDS011;13429;48.816;9.118;2023-05-10T12:28:02;3.60;;;1.50;;
25531;SDS011;13429;48.816;9.118;2023-05-10T12:30:29;2.00;;;1.00;;
25531;SDS011;13429;48.816;9.118;2023-05-10T12:33:06;2.17;;;0.70;;
25531;SDS011;13429;48.816;9.118;2023-05-10T12:35:33;2.50;;;0.98;;
25531;SDS011;13429;48.816;9.118;2023-05-10T12:37:59;1.33;;;0.50;;
25531;SDS011;13429;48.816;9.118;2023-05-10T12:40:25;5.57;;;0.82;;
25531;SDS011;13429;48.816;9.118;2023-05-10T12:42:51;0.60;;;0.50;;
25531;SDS011;13429;48.816;9.118;2023-05-10T12:45:17;2.30;;;0.52;;
25531;SDS011;13429;48.816;9.118;2023-05-10T12:47:44;2.08;;;1.30;;
25531;SDS011;13429;48.816;9.118;2023-05-10T12:50:10;3.67;;;2.30;;
25531;SDS011;13429;48.816;9.118;2023-05-10T12:52:36;24.70;;;13.25;;
25531;SDS011;13429;48.816;9.118;2023-05-10T12:55:02;10.10;;;6.78;;
25531;SDS011;13429;48.816;9.118;2023-05-10T12:57:28;6.63;;;4.20;;
25531;SDS011;13429;48.816;9.118;2023-05-10T12:59:54;4.55;;;2.72;;
25531;SDS011;13429;48.816;9.118;2023-05-10T13:02:20;4.55;;;1.23;;
25531;SDS011;13429;48.816;9.118;2023-05-10T13:04:47;0.88;;;0.43;;
25531;SDS011;13429;48.816;9.118;2023-05-10T13:07:13;2.58;;;0.73;;
25531;SDS011;13429;48.816;9.118;2023-05-10T13:09:40;3.25;;;0.70;;
25531;SDS011;13429;48.816;9.118;2023-05-10T13:12:06;1.55;;;0.65;;
25531;SDS011;13429;48.816;9.118;2023-05-10T13:14:32;3.45;;;0.68;;
25531;SDS011;13429;48.816;9.118;2023-05-10T13:16:58;3.90;;;0.73;;
25531;SDS011;13429;48.816;9.118;2023-05-10T13:19:24;1.85;;;0.40;;
25531;SDS011;13429;48.816;9.118;2023-05-10T13:21:50;3.28;;;2.50;;
25531;SDS011;13429;48.816;9.118;2023-05-10T13:24:16;2.83;;;0.82;;
25531;SDS011;13429;48.816;9.118;2023-05-10T13:26:42;3.95;;;1.17;;
25531;SDS011;13429;48.816;9.118;2023-05-10T13:29:09;1.23;;;0.57;;
25531;SDS011;13429;48.816;9.118;2023-05-10T13:31:35;2.67;;;0.77;;
25531;SDS011;13429;48.816;9.118;2023-05-10T13:34:01;1.85;;;0.57;;
25531;SDS011;13429;48.816;9.118;2023-05-10T13:36:27;3.03;;;0.90;;
25531;SDS011;13429;48.816;9.118;2023-05-10T13:38:53;0.93;;;0.73;;
25531;SDS011;13429;48.816;9.118;2023-05-10T13:41:19;2.75;;;0.70;;
25531;SDS011;13429;48.816;9.118;2023-05-10T13:43:45;1.35;;;0.60;;
25531;SDS011;13429;48.816;9.118;2023-05-10T13:46:13;5.07;;;0.90;;
25531;SDS011;13429;48.816;9.118;2023-05-10T13:48:39;1.75;;;0.90;;
25531;SDS011;13429;48.816;9.118;2023-05-10T13:51:05;2.85;;;0.57;;
25531;SDS011;13429;48.816;9.118;2023-05-10T13:53:31;1.60;;;0.60;;
25531;SDS011;13429;48.816;9.118;2023-05-10T13:55:58;1.80;;;0.70;;
25531;SDS011;13429;48.816;9.118;2023-05-10T13:58:24;4.63;;;1.02;;
25531;SDS011;13429;48.816;9.118;2023-05-10T14:00:50;1.52;;;0.40;;
25531;SDS011;13429;48.816;9.118;2023-05-10T14:03:16;1.77;;;0.55;;
25531;SDS011;13429;48.816;9.118;2023-05-10T14:05:42;3.45;;;0.40;;
25531;SDS011;13429;48.816;9.118;2023-05-10T14:08:09;7.18;;;3.42;;
25531;SDS011;13429;48.816;9.118;2023-05-10T14:10:38;1.92;;;1.15;;
25531;SDS011;13429;48.816;9.118;2023-05-10T14:13:04;3.33;;;0.70;;
25531;SDS011;13429;48.816;9.118;2023-05-10T14:15:31;2.88;;;0.80;;
25531;SDS011;13429;48.816;9.118;2023-05-10T14:17:57;4.38;;;1.02;;
25531;SDS011;13429;48.816;9.118;2023-05-10T14:20:23;2.83;;;0.63;;
25531;SDS011;13429;48.816;9.118;2023-05-10T14:22:49;6.45;;;2.88;;
25531;SDS011;13429;48.816;9.118;2023-05-10T14:25:15;12.57;;;5.15;;
25531;SDS011;13429;48.816;9.118;2023-05-10T14:27:41;13.75;;;4.75;;
25531;SDS011;13429;48.816;9.118;2023-05-10T14:30:07;14.80;;;6.18;;
25531;SDS011;13429;48.816;9.118;2023-05-10T14:32:40;15.95;;;6.15;;
25531;SDS011;13429;48.816;9.118;2023-05-10T14:35:06;3.97;;;1.33;;
25531;SDS011;13429;48.816;9.118;2023-05-10T14:37:32;12.02;;;4.88;;
25531;SDS011;13429;48.816;9.118;2023-05-10T14:39:58;7.22;;;3.17;;
25531;SDS011;13429;48.816;9.118;2023-05-10T14:42:24;7.13;;;2.47;;
25531;SDS011;13429;48.816;9.118;2023-05-10T14:44:50;2.97;;;1.67;;
25531;SDS011;13429;48.816;9.118;2023-05-10T14:47:16;6.35;;;2.85;;
25531;SDS011;13429;48.816;9.118;2023-05-10T14:49:42;5.30;;;2.13;;
25531;SDS011;13429;48.816;9.118;2023-05-10T14:52:08;2.08;;;0.77;;
25531;SDS011;13429;48.816;9.118;2023-05-10T14:54:35;2.85;;;0.57;;
25531;SDS011;13429;48.816;9.118;2023-05-10T14:57:01;1.08;;;0.40;;
25531;SDS011;13429;48.816;9.118;2023-05-10T14:59:27;3.60;;;1.02;;
25531;SDS011;13429;48.816;9.118;2023-05-10T15:01:53;4.75;;;1.48;;
25531;SDS011;13429;48.816;9.118;2023-05-10T15:04:19;34.58;;;11.77;;
25531;SDS011;13429;48.816;9.118;2023-05-10T15:06:46;28.75;;;7.90;;
25531;SDS011;13429;48.816;9.118;2023-05-10T15:09:12;16.23;;;4.90;;
25531;SDS011;13429;48.816;9.118;2023-05-10T15:11:38;29.63;;;14.18;;
25531;SDS011;13429;48.816;9.118;2023-05-10T15:14:04;20.98;;;11.52;;
25531;SDS011;13429;48.816;9.118;2023-05-10T15:16:30;37.55;;;16.55;;
25531;SDS011;13429;48.816;9.118;2023-05-10T15:18:56;28.15;;;12.25;;
25531;SDS011;13429;48.816;9.118;2023-05-10T15:21:22;39.65;;;14.82;;
25531;SDS011;13429;48.816;9.118;2023-05-10T15:23:48;25.17;;;11.70;;
25531;SDS011;13429;48.816;9.118;2023-05-10T15:26:15;20.98;;;10.75;;
25531;SDS011;13429;48.816;9.118;2023-05-10T15:28:41;2.97;;;1.55;;
25531;SDS011;13429;48.816;9.118;2023-05-10T15:31:07;1.70;;;0.55;;